Time;durP1;ratioP1;P1;durP2;ratioP2;P2;SDS_P1;SDS_P2;PMS_P1;PMS_P2;Temp;Humidity;BMP_temperature;BMP_pressure;BME280_temperature;BME280_humidity;BME280_pressure;Samples;Min_cycle;Max_cycle;Signal;HPM_P1;HPM_P2
2022/07/27 00:02:15;;;;;;;;;;;17.20;95.90;;;;;;5050486;28;19927;-73
2022/07/27 00:04:41;;;;;;;;;;;17.10;96.10;;;;;;5051793;28;19908;-73
2022/07/27 00:07:06;;;;;;;;;;;17.10;96.50;;;;;;5051773;28;19915;-73
2022/07/27 00:09:32;;;;;;;;;;;17.00;96.50;;;;;;5051299;28;19919;-73
2022/07/27 00:11:57;;;;;;;;;;;17.20;95.20;;;;;;5050802;28;20370;-73
2022/07/27 00:14:23;;;;;;;;;;;17.10;96.20;;;;;;5051560;28;19916;-73
2022/07/27 00:16:48;;;;;;;;;;;17.10;96.00;;;;;;5052042;28;19909;-72
2022/07/27 00:19:14;;;;;;;;;;;16.90;96.90;;;;;;5050707;28;19909;-73
2022/07/27 00:21:39;;;;;;;;;;;17.00;96.50;;;;;;5051187;28;19966;-72
2022/07/27 00:24:05;;;;;;;;;;;17.20;96.00;;;;;;5049743;28;19909;-73
2022/07/27 00:26:30;;;;;;;;;;;17.30;95.90;;;;;;5051790;28;20437;-71
2022/07/27 00:28:56;;;;;;;;;;;17.30;96.20;;;;;;5051895;28;19916;-73
2022/07/27 00:31:21;;;;;;;;;;;17.40;95.90;;;;;;5051820;28;19909;-73
2022/07/27 00:33:47;;;;;;;;;;;17.30;95.60;;;;;;5051220;28;19971;-72
2022/07/27 00:36:12;;;;;;;;;;;17.40;95.70;;;;;;5051497;28;19955;-73
2022/07/27 00:38:38;;;;;;;;;;;17.70;94.80;;;;;;5051591;28;19909;-73
2022/07/27 00:41:03;;;;;;;;;;;17.60;96.00;;;;;;5051518;28;19908;-72
2022/07/27 00:43:29;;;;;;;;;;;17.40;96.40;;;;;;5050751;28;20328;-72
2022/07/27 00:45:54;;;;;;;;;;;17.50;96.00;;;;;;5051553;28;19909;-72
2022/07/27 00:48:20;;;;;;;;;;;17.50;96.30;;;;;;5051136;28;20358;-73
2022/07/27 00:50:46;;;;;;;;;;;17.40;96.90;;;;;;5050932;28;19912;-73
2022/07/27 00:53:13;;;;;;;;;;;17.40;96.90;;;;;;5049208;28;19908;-73
2022/07/27 00:55:38;;;;;;;;;;;17.40;96.40;;;;;;5055757;28;20297;-73
2022/07/27 00:58:07;;;;;;;;;;;17.50;96.10;;;;;;5049922;28;19915;-73
2022/07/27 01:00:33;;;;;;;;;;;17.40;96.60;;;;;;5051388;28;19908;-72
2022/07/27 01:02:59;;;;;;;;;;;17.20;97.30;;;;;;5050814;28;20506;-71
2022/07/27 01:05:25;;;;;;;;;;;17.10;97.70;;;;;;5050488;28;19917;-73
2022/07/27 01:07:50;;;;;;;;;;;17.10;98.30;;;;;;5051452;28;19917;-73
2022/07/27 01:10:16;;;;;;;;;;;17.10;98.50;;;;;;5051053;28;20339;-72
2022/07/27 01:12:43;;;;;;;;;;;17.00;98.40;;;;;;5050489;28;19962;-73
2022/07/27 01:15:09;;;;;;;;;;;17.00;97.80;;;;;;5050552;28;19916;-73
2022/07/27 01:17:34;;;;;;;;;;;16.90;98.00;;;;;;5051317;28;19909;-73
2022/07/27 01:20:00;;;;;;;;;;;16.80;98.40;;;;;;5050375;28;20282;-72
2022/07/27 01:22:25;;;;;;;;;;;16.70;99.60;;;;;;5050680;28;19912;-72
2022/07/27 01:24:51;;;;;;;;;;;16.60;99.90;;;;;;5049230;28;20282;-72
2022/07/27 01:27:16;;;;;;;;;;;16.40;99.90;;;;;;5049607;28;19909;-73
2022/07/27 01:29:42;;;;;;;;;;;16.40;99.90;;;;;;5051066;28;20358;-72
2022/07/27 01:32:08;;;;;;;;;;;16.30;99.90;;;;;;5050487;28;19908;-73
2022/07/27 01:34:33;;;;;;;;;;;16.40;99.90;;;;;;5050162;28;20262;-73
2022/07/27 01:37:02;;;;;;;;;;;16.20;99.90;;;;;;5050943;28;19909;-73
2022/07/27 01:39:28;;;;;;;;;;;16.20;99.90;;;;;;5051100;28;19909;-71
2022/07/27 01:41:54;;;;;;;;;;;16.10;99.90;;;;;;5050447;28;19963;-73
2022/07/27 01:44:19;;;;;;;;;;;16.00;99.90;;;;;;5050278;28;19970;-72
2022/07/27 01:46:45;;;;;;;;;;;15.90;99.90;;;;;;5049586;28;19982;-72
2022/07/27 01:49:10;;;;;;;;;;;15.80;99.90;;;;;;5050428;28;19952;-71
2022/07/27 01:51:36;;;;;;;;;;;15.70;99.90;;;;;;5050530;28;19956;-73
2022/07/27 01:54:01;;;;;;;;;;;16.00;99.90;;;;;;5048698;28;19944;-72
2022/07/27 01:56:27;;;;;;;;;;;16.00;99.90;;;;;;5054749;28;19909;-73
2022/07/27 01:58:53;;;;;;;;;;;15.90;99.90;;;;;;5050828;28;19955;-73
2022/07/27 02:01:19;;;;;;;;;;;16.10;99.90;;;;;;5050288;28;19909;-73
2022/07/27 02:03:44;;;;;;;;;;;15.90;99.90;;;;;;5049961;28;19978;-71
2022/07/27 02:06:10;;;;;;;;;;;16.00;99.90;;;;;;5050924;28;19909;-73
2022/07/27 02:08:36;;;;;;;;;;;15.80;99.90;;;;;;5049096;28;20378;-73
2022/07/27 02:13:46;;;;;;;;;;;15.60;99.90;;;;;;5050175;28;20325;-72
2022/07/27 02:16:12;;;;;;;;;;;15.90;99.90;;;;;;5049340;28;20243;-72
2022/07/27 02:18:38;;;;;;;;;;;16.00;99.90;;;;;;5050408;28;19962;-73
2022/07/27 02:21:04;;;;;;;;;;;16.00;99.90;;;;;;5050511;28;19916;-72
2022/07/27 02:23:30;;;;;;;;;;;16.00;99.90;;;;;;5048280;28;20019;-73
2022/07/27 02:25:56;;;;;;;;;;;16.30;99.90;;;;;;5050236;28;19913;-72
2022/07/27 02:28:21;;;;;;;;;;;16.40;99.90;;;;;;5050690;28;19909;-72
2022/07/27 02:30:47;;;;;;;;;;;16.40;99.90;;;;;;5050691;28;20003;-73
2022/07/27 02:33:13;;;;;;;;;;;16.30;99.90;;;;;;5051393;28;19915;-73
2022/07/27 02:35:38;;;;;;;;;;;16.30;99.90;;;;;;5052601;28;19951;-73
2022/07/27 02:38:04;;;;;;;;;;;16.40;99.90;;;;;;5054037;28;19967;-72
2022/07/27 02:40:29;;;;;;;;;;;16.30;99.90;;;;;;5053818;28;20366;-73
2022/07/27 02:42:55;;;;;;;;;;;16.30;99.90;;;;;;5053233;28;19916;-72
2022/07/27 02:45:20;;;;;;;;;;;16.20;99.90;;;;;;5053231;28;19919;-72
2022/07/27 02:47:46;;;;;;;;;;;16.20;99.90;;;;;;5053859;28;19959;-72
2022/07/27 02:50:12;;;;;;;;;;;16.20;99.90;;;;;;5053611;28;20278;-73
2022/07/27 02:52:37;;;;;;;;;;;16.10;99.90;;;;;;5046872;28;19959;-73
2022/07/27 02:55:03;;;;;;;;;;;16.00;99.90;;;;;;5052024;28;20356;-73
2022/07/27 02:57:29;;;;;;;;;;;16.00;99.90;;;;;;5053741;28;20273;-73
2022/07/27 02:59:55;;;;;;;;;;;16.00;99.90;;;;;;5053662;28;19962;-73
2022/07/27 03:02:20;;;;;;;;;;;16.10;99.90;;;;;;5052849;28;19913;-72
2022/07/27 03:04:45;;;;;;;;;;;15.90;99.90;;;;;;5052368;28;20479;-73
2022/07/27 03:07:11;;;;;;;;;;;15.80;99.90;;;;;;5053189;28;19909;-73
2022/07/27 03:09:37;;;;;;;;;;;15.70;99.90;;;;;;5053421;28;19913;-73
2022/07/27 03:12:02;;;;;;;;;;;15.70;99.90;;;;;;5052587;28;19947;-72
2022/07/27 03:14:28;;;;;;;;;;;15.80;99.90;;;;;;5052496;28;19913;-73
2022/07/27 03:16:53;;;;;;;;;;;15.60;99.90;;;;;;5052658;28;20015;-73
2022/07/27 03:19:19;;;;;;;;;;;15.50;99.90;;;;;;5052708;28;19909;-73
2022/07/27 03:21:45;;;;;;;;;;;15.40;99.90;;;;;;5049941;28;19916;-72
2022/07/27 03:24:10;;;;;;;;;;;15.30;99.90;;;;;;5053390;28;20392;-73
2022/07/27 03:26:36;;;;;;;;;;;15.30;99.90;;;;;;5059200;28;20409;-73
2022/07/27 03:29:01;;;;;;;;;;;15.10;99.90;;;;;;5052919;28;19913;-73
2022/07/27 03:31:27;;;;;;;;;;;15.00;99.90;;;;;;5052379;28;19920;-71
2022/07/27 03:33:52;;;;;;;;;;;15.30;99.90;;;;;;5052116;28;19912;-73
2022/07/27 03:36:18;;;;;;;;;;;15.30;99.90;;;;;;5052963;28;19909;-73
2022/07/27 03:38:43;;;;;;;;;;;15.10;99.90;;;;;;5052818;28;19919;-73
2022/07/27 03:41:09;;;;;;;;;;;15.10;99.90;;;;;;5052722;28;19948;-73
2022/07/27 03:43:34;;;;;;;;;;;15.00;99.90;;;;;;5051889;28;20281;-73
2022/07/27 03:46:00;;;;;;;;;;;15.30;99.90;;;;;;5051420;28;19909;-73
2022/07/27 03:48:26;;;;;;;;;;;15.20;99.90;;;;;;5051355;28;20267;-72
2022/07/27 03:50:52;;;;;;;;;;;15.30;99.90;;;;;;5052365;28;19916;-72
2022/07/27 03:53:20;;;;;;;;;;;15.20;99.90;;;;;;5050588;28;19916;-71
2022/07/27 03:55:49;;;;;;;;;;;15.10;99.90;;;;;;5057646;28;19924;-72
2022/07/27 03:58:15;;;;;;;;;;;15.20;99.90;;;;;;5054628;28;19968;-74
2022/07/27 04:00:41;;;;;;;;;;;15.10;99.90;;;;;;5052290;28;19955;-73
2022/07/27 04:03:07;;;;;;;;;;;15.00;99.90;;;;;;5051532;28;19908;-74
2022/07/27 04:05:32;;;;;;;;;;;15.00;99.90;;;;;;5052258;28;20011;-74
2022/07/27 04:07:58;;;;;;;;;;;15.20;99.90;;;;;;5052100;28;20007;-73
2022/07/27 04:10:23;;;;;;;;;;;15.30;99.90;;;;;;5052249;28;20019;-74
2022/07/27 04:12:49;;;;;;;;;;;15.20;99.90;;;;;;5051756;28;19909;-74
2022/07/27 04:15:15;;;;;;;;;;;15.30;99.90;;;;;;5051677;28;19909;-73
2022/07/27 04:17:40;;;;;;;;;;;15.40;99.90;;;;;;5052072;28;20370;-74
2022/07/27 04:20:06;;;;;;;;;;;15.30;99.90;;;;;;5051969;28;19915;-73
2022/07/27 04:22:32;;;;;;;;;;;15.40;99.90;;;;;;5051574;28;19967;-72
2022/07/27 04:24:57;;;;;;;;;;;15.30;99.90;;;;;;5051004;28;19908;-74
2022/07/27 04:27:23;;;;;;;;;;;15.40;99.90;;;;;;5055309;28;20281;-73
2022/07/27 04:29:48;;;;;;;;;;;15.50;99.90;;;;;;5053499;28;19966;-73
2022/07/27 04:32:14;;;;;;;;;;;15.60;99.90;;;;;;5052560;28;19947;-73
2022/07/27 04:34:39;;;;;;;;;;;15.60;99.90;;;;;;5052185;28;19915;-74
2022/07/27 04:37:05;;;;;;;;;;;15.60;99.90;;;;;;5053636;28;19912;-73
2022/07/27 04:39:30;;;;;;;;;;;15.60;99.90;;;;;;5053874;28;19959;-72
2022/07/27 04:41:56;;;;;;;;;;;15.70;99.90;;;;;;5053911;28;19909;-72
2022/07/27 04:44:21;;;;;;;;;;;15.60;99.90;;;;;;5042665;28;20370;-73
2022/07/27 04:46:47;;;;;;;;;;;15.60;99.90;;;;;;5049745;28;19913;-74
2022/07/27 04:49:13;;;;;;;;;;;15.70;99.90;;;;;;5053866;28;20425;-74
2022/07/27 04:51:41;;;;;;;;;;;15.70;99.90;;;;;;5053573;28;19936;-74
2022/07/27 04:54:06;;;;;;;;;;;15.80;99.90;;;;;;5052989;28;19913;-72
2022/07/27 04:56:32;;;;;;;;;;;15.90;99.90;;;;;;5056075;28;19912;-74
2022/07/27 04:58:57;;;;;;;;;;;15.90;99.90;;;;;;5053987;28;20381;-74
2022/07/27 05:01:24;;;;;;;;;;;16.00;99.90;;;;;;5053002;28;19996;-75
2022/07/27 05:03:50;;;;;;;;;;;16.10;99.90;;;;;;5053110;28;19909;-73
2022/07/27 05:06:16;;;;;;;;;;;16.10;99.90;;;;;;5052381;28;19909;-73
2022/07/27 05:08:41;;;;;;;;;;;16.10;99.90;;;;;;5052240;28;19927;-73
2022/07/27 05:11:07;;;;;;;;;;;16.20;99.90;;;;;;5051984;28;19954;-73
2022/07/27 05:13:34;;;;;;;;;;;16.20;99.90;;;;;;5051808;28;19908;-74
2022/07/27 05:16:00;;;;;;;;;;;16.30;99.90;;;;;;5052561;28;19991;-74
2022/07/27 05:18:25;;;;;;;;;;;16.30;99.90;;;;;;5052294;28;19955;-73
2022/07/27 05:20:51;;;;;;;;;;;16.40;99.90;;;;;;5045294;28;19909;-73
2022/07/27 05:23:17;;;;;;;;;;;16.40;99.90;;;;;;5051288;28;19967;-73
2022/07/27 05:25:42;;;;;;;;;;;16.50;99.90;;;;;;5052644;28;19909;-73
2022/07/27 05:28:09;;;;;;;;;;;16.50;99.90;;;;;;5052161;28;20313;-71
2022/07/27 05:30:35;;;;;;;;;;;16.50;99.90;;;;;;5053799;28;19966;-73
2022/07/27 05:33:00;;;;;;;;;;;16.50;99.90;;;;;;5052262;28;19909;-72
2022/07/27 05:35:26;;;;;;;;;;;16.60;99.90;;;;;;5052693;28;19912;-74
2022/07/27 05:37:51;;;;;;;;;;;16.70;99.90;;;;;;5053854;28;19908;-74
2022/07/27 05:40:17;;;;;;;;;;;16.70;99.90;;;;;;5052810;28;19960;-74
2022/07/27 05:42:43;;;;;;;;;;;16.70;99.90;;;;;;5051887;28;19909;-74
2022/07/27 05:45:09;;;;;;;;;;;16.80;99.90;;;;;;5051857;28;20254;-74
2022/07/27 05:47:34;;;;;;;;;;;16.80;99.90;;;;;;5047854;28;19908;-74
2022/07/27 05:50:00;;;;;;;;;;;16.90;99.90;;;;;;5052318;28;19913;-74
2022/07/27 05:52:25;;;;;;;;;;;17.00;99.90;;;;;;5052697;28;19919;-74
2022/07/27 05:54:51;;;;;;;;;;;17.00;99.90;;;;;;5050334;28;20325;-74
2022/07/27 05:57:16;;;;;;;;;;;17.10;99.90;;;;;;5052056;28;19915;-74
2022/07/27 05:59:42;;;;;;;;;;;17.00;99.90;;;;;;5052277;28;19909;-75
2022/07/27 06:02:09;;;;;;;;;;;17.20;99.90;;;;;;5051205;28;19908;-74
2022/07/27 06:04:35;;;;;;;;;;;17.20;99.90;;;;;;5048920;28;19913;-75
2022/07/27 06:09:44;;;;;;;;;;;17.20;99.90;;;;;;5054855;28;19961;-75
2022/07/27 06:12:11;;;;;;;;;;;17.40;99.90;;;;;;5054382;28;19916;-75
2022/07/27 06:14:37;;;;;;;;;;;17.40;99.90;;;;;;5054023;28;19916;-75
2022/07/27 06:17:04;;;;;;;;;;;17.70;99.90;;;;;;5054056;28;19909;-75
2022/07/27 06:19:30;;;;;;;;;;;17.50;99.90;;;;;;5054125;28;19999;-75
2022/07/27 06:21:56;;;;;;;;;;;17.70;99.90;;;;;;5053435;28;20055;-74
2022/07/27 06:24:21;;;;;;;;;;;17.70;99.90;;;;;;5052797;28;19999;-75
2022/07/27 06:26:47;;;;;;;;;;;18.00;99.90;;;;;;5054330;28;20341;-75
2022/07/27 06:29:12;;;;;;;;;;;18.10;99.90;;;;;;5054416;28;19916;-74
2022/07/27 06:31:38;;;;;;;;;;;17.80;99.90;;;;;;5054067;28;19909;-74
2022/07/27 06:34:03;;;;;;;;;;;18.10;99.90;;;;;;5053937;28;19991;-75
2022/07/27 06:36:29;;;;;;;;;;;18.10;99.90;;;;;;5054147;28;20389;-74
2022/07/27 06:38:54;;;;;;;;;;;18.30;99.90;;;;;;5054270;28;19913;-74
2022/07/27 06:41:20;;;;;;;;;;;18.40;99.90;;;;;;5054034;28;19916;-74
2022/07/27 06:43:45;;;;;;;;;;;18.40;99.90;;;;;;5053720;28;20362;-74
2022/07/27 06:46:12;;;;;;;;;;;18.50;99.90;;;;;;5054259;28;20370;-74
2022/07/27 06:48:40;;;;;;;;;;;18.80;99.90;;;;;;5054432;28;19908;-74
2022/07/27 06:51:06;;;;;;;;;;;18.80;99.90;;;;;;5053811;28;19956;-74
2022/07/27 06:53:31;;;;;;;;;;;18.50;99.90;;;;;;5054440;28;19967;-74
2022/07/27 06:56:02;;;;;;;;;;;18.60;99.90;;;;;;5061132;28;19915;-74
2022/07/27 06:58:30;;;;;;;;;;;18.70;99.90;;;;;;5049466;28;19912;-75
2022/07/27 07:00:56;;;;;;;;;;;18.60;99.90;;;;;;5054541;28;19936;-74
2022/07/27 07:03:22;;;;;;;;;;;19.00;99.90;;;;;;5054854;28;20185;-75
2022/07/27 07:05:47;;;;;;;;;;;19.40;99.90;;;;;;5053721;28;19916;-75
2022/07/27 07:08:13;;;;;;;;;;;19.50;99.90;;;;;;5053942;28;20050;-75
2022/07/27 07:10:39;;;;;;;;;;;19.80;99.90;;;;;;5055226;28;19999;-75
2022/07/27 07:13:05;;;;;;;;;;;20.10;99.90;;;;;;5055016;28;19908;-75
2022/07/27 07:15:31;;;;;;;;;;;20.10;99.90;;;;;;5058360;28;19909;-75
2022/07/27 07:17:56;;;;;;;;;;;19.70;99.90;;;;;;5055068;28;20366;-74
2022/07/27 07:20:22;;;;;;;;;;;19.30;99.90;;;;;;5055150;28;19916;-74
2022/07/27 07:22:48;;;;;;;;;;;19.30;99.90;;;;;;5054387;28;19916;-75
2022/07/27 07:25:13;;;;;;;;;;;19.60;99.90;;;;;;5054739;28;19909;-75
2022/07/27 07:27:39;;;;;;;;;;;19.60;99.90;;;;;;5056218;28;19962;-74
2022/07/27 07:30:05;;;;;;;;;;;19.50;99.90;;;;;;5056696;28;19920;-74
2022/07/27 07:32:30;;;;;;;;;;;20.10;99.90;;;;;;5056001;28;19916;-73
2022/07/27 07:34:56;;;;;;;;;;;20.30;99.90;;;;;;5055360;28;19912;-74
2022/07/27 07:37:21;;;;;;;;;;;20.20;99.90;;;;;;5055352;28;19915;-75
2022/07/27 07:39:47;;;;;;;;;;;20.10;99.90;;;;;;5056463;28;19931;-74
2022/07/27 07:42:13;;;;;;;;;;;20.40;99.90;;;;;;5055174;28;19909;-74
2022/07/27 07:44:38;;;;;;;;;;;20.60;99.90;;;;;;5054981;28;19915;-74
2022/07/27 07:47:04;;;;;;;;;;;20.60;99.90;;;;;;5056016;28;19909;-74
2022/07/27 07:49:30;;;;;;;;;;;20.90;99.90;;;;;;5055909;28;19913;-74
2022/07/27 07:51:55;;;;;;;;;;;21.10;99.90;;;;;;5055119;28;19915;-74
2022/07/27 07:54:21;;;;;;;;;;;21.00;99.90;;;;;;5055314;28;19975;-74
2022/07/27 07:56:47;;;;;;;;;;;20.90;99.90;;;;;;5053633;28;20432;-73
2022/07/27 07:59:13;;;;;;;;;;;21.10;99.90;;;;;;5053168;28;19908;-75
2022/07/27 08:01:38;;;;;;;;;;;21.80;99.90;;;;;;5055414;28;19913;-75
2022/07/27 08:04:04;;;;;;;;;;;21.60;99.90;;;;;;5055209;28;20031;-75
2022/07/27 08:06:29;;;;;;;;;;;22.00;99.90;;;;;;5055000;28;19913;-75
2022/07/27 08:08:55;;;;;;;;;;;22.40;99.90;;;;;;5054855;28;20281;-73
2022/07/27 08:11:21;;;;;;;;;;;22.20;99.90;;;;;;5055276;28;19913;-75
2022/07/27 08:13:46;;;;;;;;;;;21.70;99.90;;;;;;5054853;28;19956;-73
2022/07/27 08:16:13;;;;;;;;;;;22.20;99.90;;;;;;5054915;28;19954;-74
2022/07/27 08:18:38;;;;;;;;;;;22.40;98.90;;;;;;5055444;28;19909;-75
2022/07/27 08:21:04;;;;;;;;;;;22.60;98.80;;;;;;5055723;28;19917;-74
2022/07/27 08:23:30;;;;;;;;;;;22.40;99.90;;;;;;5054792;28;19909;-74
2022/07/27 08:25:56;;;;;;;;;;;22.40;98.20;;;;;;5056037;28;19948;-75
2022/07/27 08:28:22;;;;;;;;;;;22.30;99.90;;;;;;5055619;28;19920;-74
2022/07/27 08:30:48;;;;;;;;;;;22.80;99.00;;;;;;5054235;28;20278;-74
2022/07/27 08:33:14;;;;;;;;;;;22.90;98.60;;;;;;5054213;28;19909;-74
2022/07/27 08:35:39;;;;;;;;;;;22.30;98.20;;;;;;5055145;28;19915;-74
2022/07/27 08:38:06;;;;;;;;;;;22.30;98.30;;;;;;5055079;28;19988;-74
2022/07/27 08:40:32;;;;;;;;;;;22.40;97.50;;;;;;5055208;28;19909;-73
2022/07/27 08:42:59;;;;;;;;;;;23.10;97.90;;;;;;5055006;28;19909;-74
2022/07/27 08:45:25;;;;;;;;;;;23.30;97.80;;;;;;5054333;28;19909;-75
2022/07/27 08:47:51;;;;;;;;;;;23.40;97.40;;;;;;5055735;28;20366;-74
2022/07/27 08:50:23;;;;;;;;;;;23.90;95.30;;;;;;5055911;28;19917;-74
2022/07/27 08:52:52;;;;;;;;;;;23.60;97.30;;;;;;5054931;28;19909;-75
2022/07/27 08:55:18;;;;;;;;;;;25.30;94.10;;;;;;5052124;28;19908;-75
2022/07/27 08:57:44;;;;;;;;;;;26.00;90.40;;;;;;5051348;28;19954;-74
2022/07/27 09:00:11;;;;;;;;;;;25.50;90.70;;;;;;5048778;28;19913;-75
2022/07/27 09:02:37;;;;;;;;;;;24.70;92.20;;;;;;5055305;28;19912;-75
2022/07/27 09:05:03;;;;;;;;;;;25.10;90.20;;;;;;5054128;28;19909;-73
2022/07/27 09:07:30;;;;;;;;;;;23.90;92.80;;;;;;5055003;28;20007;-75
2022/07/27 09:09:55;;;;;;;;;;;24.50;92.80;;;;;;5054917;28;20455;-74
2022/07/27 09:12:25;;;;;;;;;;;25.50;92.70;;;;;;5054217;28;19909;-75
2022/07/27 09:15:01;;;;;;;;;;;26.80;88.20;;;;;;5053936;28;19908;-74
2022/07/27 09:17:26;;;;;;;;;;;26.00;88.90;;;;;;5047830;28;19912;-74
2022/07/27 09:19:55;;;;;;;;;;;26.90;85.30;;;;;;5053463;28;19970;-75
2022/07/27 09:22:40;;;;;;;;;;;25.50;87.80;;;;;;5047301;28;19913;-75
2022/07/27 09:25:06;;;;;;;;;;;25.00;87.90;;;;;;5058523;28;19928;-75
2022/07/27 09:27:31;;;;;;;;;;;24.90;89.20;;;;;;5053528;28;20313;-75
2022/07/27 09:30:01;;;;;;;;;;;25.90;90.00;;;;;;5053214;28;19917;-75
2022/07/27 09:32:27;;;;;;;;;;;25.30;87.90;;;;;;5052570;28;19913;-74
2022/07/27 09:34:52;;;;;;;;;;;24.70;88.90;;;;;;5052768;28;20358;-75
2022/07/27 09:37:24;;;;;;;;;;;24.10;91.70;;;;;;5052797;28;19909;-75
2022/07/27 09:40:08;;;;;;;;;;;24.00;90.40;;;;;;5053306;28;19963;-75
2022/07/27 09:42:33;;;;;;;;;;;23.70;90.20;;;;;;5055710;28;19909;-75
2022/07/27 09:44:59;;;;;;;;;;;23.70;92.40;;;;;;5057808;28;20259;-74
2022/07/27 09:47:28;;;;;;;;;;;24.00;90.60;;;;;;5057381;28;19909;-75
2022/07/27 09:49:55;;;;;;;;;;;24.80;90.50;;;;;;5058971;28;20312;-74
2022/07/27 09:52:22;;;;;;;;;;;25.30;90.30;;;;;;5055763;28;20003;-76
2022/07/27 09:54:48;;;;;;;;;;;26.30;86.90;;;;;;5058155;28;20258;-76
2022/07/27 09:57:14;;;;;;;;;;;25.40;89.90;;;;;;5057325;28;20012;-75
2022/07/27 09:59:39;;;;;;;;;;;26.00;89.70;;;;;;5057999;28;19909;-75
2022/07/27 10:02:05;;;;;;;;;;;25.70;86.40;;;;;;5057875;28;19916;-75
2022/07/27 10:04:34;;;;;;;;;;;25.40;91.90;;;;;;5059254;28;19912;-75
2022/07/27 10:07:00;;;;;;;;;;;25.40;86.70;;;;;;5059168;28;19944;-75
2022/07/27 10:09:27;;;;;;;;;;;25.30;86.90;;;;;;5059170;28;20019;-75
2022/07/27 10:11:52;;;;;;;;;;;24.00;89.40;;;;;;5058798;28;19935;-75
2022/07/27 10:14:18;;;;;;;;;;;22.70;90.70;;;;;;5057922;28;19909;-74
2022/07/27 10:16:47;;;;;;;;;;;22.50;92.30;;;;;;5059864;28;20003;-75
2022/07/27 10:19:26;;;;;;;;;;;23.00;92.40;;;;;;5058586;28;19967;-74
2022/07/27 10:21:52;;;;;;;;;;;22.90;92.30;;;;;;5058205;28;19909;-75
2022/07/27 10:24:30;;;;;;;;;;;24.70;91.80;;;;;;5065642;28;19909;-75
2022/07/27 10:26:55;;;;;;;;;;;24.50;90.40;;;;;;5056554;28;20312;-74
2022/07/27 10:29:21;;;;;;;;;;;27.20;87.70;;;;;;5056729;28;19958;-74
2022/07/27 10:31:53;;;;;;;;;;;26.30;83.30;;;;;;5056582;28;20397;-74
2022/07/27 10:34:34;;;;;;;;;;;25.20;87.80;;;;;;5056085;28;19909;-74
2022/07/27 10:37:08;;;;;;;;;;;25.50;88.70;;;;;;5052353;28;19908;-75
2022/07/27 10:39:35;;;;;;;;;;;27.80;85.80;;;;;;5056812;28;19908;-75
2022/07/27 10:42:19;;;;;;;;;;;26.90;78.90;;;;;;5056573;28;20373;-75
2022/07/27 10:44:51;;;;;;;;;;;26.70;83.90;;;;;;5055579;28;20285;-74
2022/07/27 10:47:26;;;;;;;;;;;27.90;79.30;;;;;;5056181;28;19912;-74
2022/07/27 10:50:12;;;;;;;;;;;27.60;80.10;;;;;;5056824;28;20273;-74
2022/07/27 10:52:46;;;;;;;;;;;28.70;78.10;;;;;;5051022;28;19915;-75
2022/07/27 10:55:30;;;;;;;;;;;27.50;76.60;;;;;;5056687;28;19977;-75
2022/07/27 10:58:01;;;;;;;;;;;25.70;80.00;;;;;;5058253;28;20392;-75
2022/07/27 11:00:45;;;;;;;;;;;24.70;82.60;;;;;;5055923;28;19913;-75
2022/07/27 11:03:18;;;;;;;;;;;24.40;81.00;;;;;;5050911;28;19932;-75
2022/07/27 11:05:52;;;;;;;;;;;26.70;84.30;;;;;;5055842;28;19909;-75
2022/07/27 11:08:23;;;;;;;;;;;26.60;80.70;;;;;;5055112;28;19917;-75
2022/07/27 11:10:48;;;;;;;;;;;25.80;77.70;;;;;;5055852;28;19960;-75
2022/07/27 11:13:16;;;;;;;;;;;25.30;80.60;;;;;;5054890;28;19909;-75
2022/07/27 11:15:49;;;;;;;;;;;25.40;78.30;;;;;;5055657;28;19913;-75
2022/07/27 11:18:14;;;;;;;;;;;24.90;82.30;;;;;;5056144;28;19908;-75
2022/07/27 11:20:40;;;;;;;;;;;24.30;84.20;;;;;;5055357;28;20298;-75
2022/07/27 11:23:22;;;;;;;;;;;24.00;82.00;;;;;;5054547;28;19952;-75
2022/07/27 11:25:58;;;;;;;;;;;24.10;84.20;;;;;;5055828;28;19909;-75
2022/07/27 11:28:30;;;;;;;;;;;25.00;83.40;;;;;;5056079;28;20293;-75
2022/07/27 11:30:57;;;;;;;;;;;25.00;80.00;;;;;;5055770;28;19913;-75
2022/07/27 11:33:22;;;;;;;;;;;24.90;78.30;;;;;;5054816;28;19999;-75
2022/07/27 11:35:55;;;;;;;;;;;25.50;78.10;;;;;;5055403;28;19951;-75
2022/07/27 11:38:21;;;;;;;;;;;27.30;75.00;;;;;;5056940;28;19913;-75
2022/07/27 11:40:49;;;;;;;;;;;28.40;79.60;;;;;;5056920;28;20011;-75
2022/07/27 11:43:34;;;;;;;;;;;29.00;69.90;;;;;;5055545;28;19947;-75
2022/07/27 11:46:16;;;;;;;;;;;28.60;70.80;;;;;;5055380;28;19909;-75
2022/07/27 11:49:03;;;;;;;;;;;28.30;68.80;;;;;;5056823;28;19948;-75
2022/07/27 11:51:29;;;;;;;;;;;28.80;69.10;;;;;;5050647;28;19909;-75
2022/07/27 11:53:59;;;;;;;;;;;27.10;70.20;;;;;;5054663;28;20269;-75
2022/07/27 11:56:25;;;;;;;;;;;25.70;74.90;;;;;;5055261;28;19952;-75
2022/07/27 11:59:00;;;;;;;;;;;25.10;77.10;;;;;;5056072;28;19917;-75
2022/07/27 12:01:33;;;;;;;;;;;24.90;76.50;;;;;;5053444;28;19919;-75
2022/07/27 12:04:05;;;;;;;;;;;26.00;75.10;;;;;;5054941;28;19909;-75
2022/07/27 12:06:32;;;;;;;;;;;26.80;72.00;;;;;;5055088;28;20007;-75
2022/07/27 12:08:58;;;;;;;;;;;27.00;71.90;;;;;;5055603;28;19917;-76
2022/07/27 12:11:42;;;;;;;;;;;27.00;72.20;;;;;;5056029;28;19909;-73
2022/07/27 12:14:14;;;;;;;;;;;27.90;70.00;;;;;;5056448;28;20309;-73
2022/07/27 12:16:40;;;;;;;;;;;26.90;76.00;;;;;;5057121;28;19909;-75
2022/07/27 12:19:05;;;;;;;;;;;28.10;73.10;;;;;;5058498;28;19916;-75
2022/07/27 12:21:31;;;;;;;;;;;28.60;69.10;;;;;;5056523;28;19916;-75
2022/07/27 12:23:57;;;;;;;;;;;28.10;70.90;;;;;;5057717;28;19959;-75
2022/07/27 12:26:24;;;;;;;;;;;26.90;74.30;;;;;;5056503;28;20024;-75
2022/07/27 12:29:04;;;;;;;;;;;27.40;69.10;;;;;;5057506;28;19951;-75
2022/07/27 12:31:30;;;;;;;;;;;26.30;70.50;;;;;;5050027;28;19936;-75
2022/07/27 12:33:56;;;;;;;;;;;25.50;73.30;;;;;;5055247;28;20531;-75
2022/07/27 12:36:30;;;;;;;;;;;24.90;75.60;;;;;;5056854;28;19940;-74
2022/07/27 12:38:56;;;;;;;;;;;24.60;75.10;;;;;;5057198;28;19909;-75
2022/07/27 12:41:23;;;;;;;;;;;24.00;76.50;;;;;;5056256;28;19970;-74
2022/07/27 12:44:08;;;;;;;;;;;23.80;77.20;;;;;;5055531;28;19932;-74
2022/07/27 12:46:50;;;;;;;;;;;23.30;78.70;;;;;;5056167;28;19912;-74
2022/07/27 12:49:15;;;;;;;;;;;23.30;78.30;;;;;;5056129;28;19920;-75
2022/07/27 12:51:41;;;;;;;;;;;25.60;75.80;;;;;;5055356;28;19908;-74
2022/07/27 12:54:07;;;;;;;;;;;29.70;64.50;;;;;;5055124;28;19909;-75
2022/07/27 12:56:33;;;;;;;;;;;31.00;61.50;;;;;;5056811;28;19909;-75
2022/07/27 12:59:02;;;;;;;;;;;30.80;60.10;;;;;;5057620;28;19909;-75
2022/07/27 13:01:28;;;;;;;;;;;31.80;59.30;;;;;;5056370;28;19909;-75
2022/07/27 13:03:53;;;;;;;;;;;31.00;55.90;;;;;;5056205;28;19919;-75
2022/07/27 13:06:19;;;;;;;;;;;29.80;62.00;;;;;;5055392;28;19909;-75
2022/07/27 13:08:44;;;;;;;;;;;31.70;57.60;;;;;;5054505;28;19917;-75
2022/07/27 13:11:10;;;;;;;;;;;31.60;57.80;;;;;;5056486;28;19909;-75
2022/07/27 13:13:35;;;;;;;;;;;31.80;56.00;;;;;;5055439;28;19909;-75
2022/07/27 13:16:01;;;;;;;;;;;32.50;58.00;;;;;;5055208;28;19959;-75
2022/07/27 13:18:26;;;;;;;;;;;31.20;56.70;;;;;;5055512;28;19919;-75
2022/07/27 13:20:52;;;;;;;;;;;31.90;52.50;;;;;;5056699;28;19913;-75
2022/07/27 13:23:18;;;;;;;;;;;31.90;52.50;;;;;;5054151;28;20428;-75
2022/07/27 13:25:43;;;;;;;;;;;34.20;52.70;;;;;;5059072;28;19931;-75
2022/07/27 13:28:09;;;;;;;;;;;32.80;53.10;;;;;;5056946;28;19909;-75
2022/07/27 13:30:34;;;;;;;;;;;31.80;53.20;;;;;;5056647;28;19970;-75
2022/07/27 13:33:00;;;;;;;;;;;31.80;54.00;;;;;;5056119;28;19919;-75
2022/07/27 13:35:26;;;;;;;;;;;32.20;53.40;;;;;;5055199;28;19915;-75
2022/07/27 13:37:51;;;;;;;;;;;31.00;57.10;;;;;;5055731;28;20420;-75
2022/07/27 13:40:17;;;;;;;;;;;32.40;52.60;;;;;;5056313;28;20440;-75
2022/07/27 13:42:43;;;;;;;;;;;31.70;53.90;;;;;;5057318;28;20263;-75
2022/07/27 13:45:08;;;;;;;;;;;30.80;55.50;;;;;;5055763;28;19963;-75
2022/07/27 13:47:34;;;;;;;;;;;31.70;54.50;;;;;;5060065;28;20362;-75
2022/07/27 13:49:59;;;;;;;;;;;33.60;53.80;;;;;;5058346;28;20273;-75
2022/07/27 13:52:25;;;;;;;;;;;30.50;55.10;;;;;;5055157;28;19931;-74
2022/07/27 13:54:50;;;;;;;;;;;26.70;62.50;;;;;;5055646;28;20278;-74
2022/07/27 13:57:16;;;;;;;;;;;25.30;66.80;;;;;;5065254;28;19920;-72
2022/07/27 13:59:42;;;;;;;;;;;24.20;70.30;;;;;;5076213;28;19948;-75
2022/07/27 14:02:08;;;;;;;;;;;27.00;66.90;;;;;;5076071;28;19900;-74
2022/07/27 14:04:36;;;;;;;;;;;30.30;57.60;;;;;;5076433;28;19929;-75
2022/07/27 14:07:02;;;;;;;;;;;29.90;57.90;;;;;;5076537;28;19976;-76
2022/07/27 14:12:12;;;;;;;;;;;27.70;61.90;;;;;;5076727;28;19959;-75
2022/07/27 14:14:37;;;;;;;;;;;31.40;54.30;;;;;;5075928;28;19901;-73
2022/07/27 14:17:03;;;;;;;;;;;32.00;55.20;;;;;;5076676;28;19948;-74
2022/07/27 14:19:29;;;;;;;;;;;32.80;54.10;;;;;;5068755;28;19901;-75
2022/07/27 14:21:55;;;;;;;;;;;32.30;53.30;;;;;;5075289;28;19913;-74
2022/07/27 14:24:20;;;;;;;;;;;31.50;54.80;;;;;;5078347;28;19905;-75